Time;durP1;ratioP1;P1;durP2;ratioP2;P2;SDS_P1;SDS_P2;PMS_P1;PMS_P2;Temp;Humidity;BMP_temperature;BMP_pressure;BME280_temperature;BME280_humidity;BME280_pressure;Samples;Min_cycle;Max_cycle;Signal;HPM_P1;HPM_P2
2020/12/05 00:01:26;;;;;;;116.68;42.97;;;0.20;99.90;;;;;;5055264;28;20040;-76
2020/12/05 00:03:51;;;;;;;107.75;39.53;;;0.20;99.90;;;;;;5037345;28;20493;-76
2020/12/05 00:06:23;;;;;;;107.35;37.35;;;0.20;99.90;;;;;;5055346;28;20049;-76
2020/12/05 00:08:50;;;;;;;115.20;42.10;;;0.20;99.90;;;;;;5055347;28;20029;-75
2020/12/05 00:11:23;;;;;;;111.90;38.83;;;0.10;99.90;;;;;;5055191;28;20025;-75
2020/12/05 00:13:49;;;;;;;121.30;40.97;;;0.10;99.90;;;;;;5037215;28;20056;-75
2020/12/05 00:16:15;;;;;;;95.35;33.80;;;0.10;99.90;;;;;;5055107;28;20094;-76
2020/12/05 00:18:40;;;;;;;117.97;39.88;;;0.00;99.90;;;;;;5055048;28;20148;-76
2020/12/05 00:21:06;;;;;;;122.28;40.00;;;0.00;99.90;;;;;;5055019;28;20467;-75
2020/12/05 00:23:32;;;;;;;124.38;41.45;;;0.00;99.90;;;;;;5054854;28;20049;-76
2020/12/05 00:25:58;;;;;;;110.72;37.08;;;0.00;99.90;;;;;;5055455;28;20096;-77
2020/12/05 00:28:23;;;;;;;127.82;43.92;;;0.00;99.90;;;;;;5055436;28;20021;-77
2020/12/05 00:30:49;;;;;;;123.20;39.92;;;0.00;99.90;;;;;;5055673;28;20025;-77
2020/12/05 00:33:15;;;;;;;127.72;43.25;;;0.00;99.90;;;;;;5055404;28;20025;-77
2020/12/05 00:35:41;;;;;;;99.50;33.45;;;0.00;99.90;;;;;;5055179;28;20120;-77
2020/12/05 00:38:06;;;;;;;120.80;41.05;;;0.00;99.90;;;;;;5055243;28;20025;-76
2020/12/05 00:40:32;;;;;;;126.10;42.60;;;0.00;99.90;;;;;;5055256;28;20406;-76
2020/12/05 00:42:58;;;;;;;133.45;43.53;;;0.00;99.90;;;;;;5055364;28;20025;-76
2020/12/05 00:45:24;;;;;;;133.38;42.38;;;0.00;99.90;;;;;;5055041;28;20017;-76
2020/12/05 00:47:49;;;;;;;141.80;43.55;;;0.00;99.90;;;;;;5054890;28;20378;-77
2020/12/05 00:50:15;;;;;;;137.02;42.83;;;0.00;99.90;;;;;;5054985;28;20703;-77
2020/12/05 00:52:41;;;;;;;131.30;43.92;;;0.00;99.90;;;;;;5054720;28;20029;-76
2020/12/05 00:55:07;;;;;;;152.65;45.67;;;0.00;99.90;;;;;;5054946;28;20036;-77
2020/12/05 00:57:32;;;;;;;169.30;52.17;;;0.00;99.90;;;;;;5054989;28;20100;-76
2020/12/05 00:59:58;;;;;;;147.10;47.25;;;0.00;99.90;;;;;;5036797;28;20082;-76
2020/12/05 01:02:25;;;;;;;147.63;46.88;;;0.00;99.90;;;;;;5054606;28;20027;-76
2020/12/05 01:04:52;;;;;;;167.73;50.42;;;0.00;99.90;;;;;;5054725;28;20017;-76
2020/12/05 01:07:27;;;;;;;176.75;50.83;;;0.10;99.90;;;;;;5054627;28;20482;-77
2020/12/05 01:09:55;;;;;;;197.25;53.42;;;0.10;99.90;;;;;;5054613;28;20668;-77
2020/12/05 01:12:24;;;;;;;171.32;47.92;;;0.10;99.90;;;;;;5054356;28;20052;-76
2020/12/05 01:14:49;;;;;;;180.38;50.92;;;0.10;99.90;;;;;;5054237;28;20463;-76
2020/12/05 01:17:15;;;;;;;186.13;52.85;;;0.10;99.90;;;;;;5054099;28;20036;-76
2020/12/05 01:19:41;;;;;;;179.55;50.92;;;0.10;99.90;;;;;;5054235;28;20021;-76
2020/12/05 01:22:07;;;;;;;201.25;52.65;;;0.00;99.90;;;;;;5036183;28;20068;-76
2020/12/05 01:24:32;;;;;;;210.27;52.88;;;0.10;99.90;;;;;;5053311;28;20132;-77
2020/12/05 01:26:58;;;;;;;200.10;52.28;;;0.00;99.90;;;;;;5053997;28;20463;-76
2020/12/05 01:29:24;;;;;;;201.10;53.88;;;0.00;99.90;;;;;;5036394;28;20024;-76
2020/12/05 01:31:49;;;;;;;178.07;47.45;;;0.00;99.90;;;;;;5036460;28;20028;-77
2020/12/05 01:34:16;;;;;;;191.48;51.95;;;0.00;99.90;;;;;;5054114;28;20023;-77
2020/12/05 01:36:45;;;;;;;134.95;36.63;;;0.00;99.90;;;;;;5054063;28;20025;-76
2020/12/05 01:39:12;;;;;;;196.57;49.25;;;0.00;99.90;;;;;;5036393;28;20029;-77
2020/12/05 01:41:43;;;;;;;188.07;48.63;;;0.00;99.90;;;;;;5054025;28;20021;-78
2020/12/05 01:44:08;;;;;;;208.35;54.72;;;0.10;99.90;;;;;;5053597;28;20061;-77
2020/12/05 01:46:38;;;;;;;238.88;56.67;;;0.00;99.90;;;;;;5053246;28;20051;-76
2020/12/05 01:49:31;;;;;;;200.27;53.10;;;0.10;99.90;;;;;;5053819;28;20044;-75
2020/12/05 01:51:59;;;;;;;196.38;51.20;;;0.10;99.90;;;;;;5049442;28;20086;-75
2020/12/05 01:54:26;;;;;;;230.20;57.97;;;0.10;99.90;;;;;;5053340;28;20068;-76
2020/12/05 01:57:05;;;;;;;239.85;55.47;;;0.10;99.90;;;;;;5053369;28;20078;-76
2020/12/05 01:59:31;;;;;;;237.18;56.28;;;0.10;99.90;;;;;;5035444;28;20021;-76
2020/12/05 02:02:02;;;;;;;231.10;56.88;;;0.10;99.90;;;;;;5053358;28;20025;-77
2020/12/05 02:04:54;;;;;;;254.70;54.25;;;0.20;99.90;;;;;;5035459;28;20028;-75
2020/12/05 02:07:26;;;;;;;271.48;59.63;;;0.10;99.90;;;;;;5053102;28;20017;-76
2020/12/05 02:09:53;;;;;;;262.85;58.00;;;0.20;99.90;;;;;;5035360;28;20025;-77
2020/12/05 02:12:33;;;;;;;253.07;60.50;;;0.10;99.90;;;;;;5052852;28;20087;-76
2020/12/05 02:15:10;;;;;;;237.30;55.75;;;0.10;99.90;;;;;;5052854;28;20060;-76
2020/12/05 02:17:39;;;;;;;255.57;61.80;;;0.10;99.90;;;;;;5053005;28;20078;-76
2020/12/05 02:20:08;;;;;;;270.60;63.20;;;0.10;99.90;;;;;;5053255;28;20086;-76
2020/12/05 02:22:39;;;;;;;282.42;64.07;;;0.10;99.90;;;;;;5052553;28;20043;-75
2020/12/05 02:25:05;;;;;;;289.70;64.95;;;0.10;99.90;;;;;;5052890;28;20036;-76
2020/12/05 02:27:33;;;;;;;273.60;62.58;;;0.10;99.90;;;;;;5052886;28;20028;-76
2020/12/05 02:29:59;;;;;;;260.48;60.15;;;0.00;99.90;;;;;;5052963;28;20017;-75
2020/12/05 02:32:25;;;;;;;274.52;63.08;;;0.10;99.90;;;;;;5035151;28;20416;-76
2020/12/05 02:34:51;;;;;;;264.92;61.00;;;0.10;99.90;;;;;;5052916;28;20070;-76
2020/12/05 02:37:21;;;;;;;233.35;53.15;;;0.10;99.90;;;;;;5052910;28;20033;-77
2020/12/05 02:39:48;;;;;;;258.55;58.22;;;0.00;99.90;;;;;;5034984;28;20028;-78
2020/12/05 02:42:14;;;;;;;235.95;54.17;;;0.10;99.90;;;;;;5052817;28;20017;-76
2020/12/05 02:44:48;;;;;;;236.68;51.40;;;0.00;99.90;;;;;;5052854;28;20036;-77
2020/12/05 02:47:14;;;;;;;226.65;49.42;;;0.00;99.90;;;;;;5052577;28;20028;-77
2020/12/05 02:49:40;;;;;;;207.93;51.20;;;0.00;99.90;;;;;;5052825;28;20071;-76
2020/12/05 02:52:06;;;;;;;254.23;50.67;;;0.00;99.90;;;;;;5034829;28;20417;-76
2020/12/05 02:54:32;;;;;;;225.95;48.03;;;0.00;99.90;;;;;;5052644;28;20029;-76
2020/12/05 02:57:01;;;;;;;197.85;50.25;;;0.00;99.90;;;;;;5052916;28;20024;-76
2020/12/05 02:59:28;;;;;;;246.70;52.70;;;0.00;99.90;;;;;;5055173;28;20032;-76
2020/12/05 03:01:54;;;;;;;226.93;49.80;;;0.00;99.90;;;;;;5056853;28;20048;-77
2020/12/05 03:04:20;;;;;;;267.05;54.72;;;0.00;99.90;;;;;;5056597;28;20029;-76
2020/12/05 03:06:46;;;;;;;248.48;50.60;;;0.00;99.90;;;;;;5057058;28;20017;-76
2020/12/05 03:09:12;;;;;;;290.73;57.28;;;0.00;99.90;;;;;;5056836;28;20033;-76
2020/12/05 03:11:37;;;;;;;267.90;56.50;;;0.00;99.90;;;;;;5038867;28;20040;-76
2020/12/05 03:14:03;;;;;;;241.63;53.83;;;0.00;99.90;;;;;;5056658;28;20032;-76
2020/12/05 03:16:29;;;;;;;254.90;58.35;;;0.10;99.90;;;;;;5056707;28;20036;-76
2020/12/05 03:18:55;;;;;;;226.13;50.50;;;0.10;99.90;;;;;;5056699;28;20036;-75
2020/12/05 03:21:20;;;;;;;258.02;55.50;;;0.10;99.90;;;;;;5056911;28;20142;-76
2020/12/05 03:23:46;;;;;;;224.13;53.08;;;0.10;99.90;;;;;;5056358;28;20102;-76
2020/12/05 03:26:12;;;;;;;237.18;50.50;;;0.20;99.90;;;;;;5057084;28;20474;-76
2020/12/05 03:28:39;;;;;;;275.48;55.75;;;0.20;99.90;;;;;;5038700;28;20060;-76
2020/12/05 03:31:05;;;;;;;272.20;55.80;;;0.20;99.90;;;;;;5056451;28;20040;-76
2020/12/05 03:33:33;;;;;;;305.70;54.65;;;0.30;99.90;;;;;;5056047;28;20028;-77
2020/12/05 03:35:59;;;;;;;288.23;55.40;;;0.20;99.90;;;;;;5056453;28;20513;-76
2020/12/05 03:38:24;;;;;;;344.52;60.78;;;0.20;99.90;;;;;;5056305;28;20033;-76
2020/12/05 03:40:50;;;;;;;252.80;54.47;;;0.10;99.90;;;;;;5056363;28;20036;-76
2020/12/05 03:43:16;;;;;;;239.20;48.28;;;0.20;99.90;;;;;;5056167;28;20090;-76
2020/12/05 03:45:41;;;;;;;268.45;51.45;;;0.20;99.90;;;;;;5056384;28;20039;-76
2020/12/05 03:48:12;;;;;;;232.32;51.00;;;0.20;99.90;;;;;;5056613;28;20169;-76
2020/12/05 03:50:38;;;;;;;212.80;47.15;;;0.10;99.90;;;;;;5056210;28;20383;-76
2020/12/05 03:53:04;;;;;;;245.57;52.90;;;0.20;99.90;;;;;;5056154;28;20029;-76
2020/12/05 03:55:29;;;;;;;252.38;53.05;;;0.20;99.90;;;;;;5056264;28;20098;-76
2020/12/05 03:57:55;;;;;;;249.43;53.97;;;0.20;99.90;;;;;;5056100;28;20106;-76
2020/12/05 04:00:21;;;;;;;277.45;54.38;;;0.20;99.90;;;;;;5055879;28;20033;-76
2020/12/05 04:02:46;;;;;;;271.65;55.28;;;0.20;99.90;;;;;;5055889;28;20029;-77
2020/12/05 04:05:12;;;;;;;294.58;54.95;;;0.20;99.90;;;;;;5055499;28;20033;-76
2020/12/05 04:07:38;;;;;;;264.83;54.38;;;0.20;99.90;;;;;;5055513;28;20147;-76
2020/12/05 04:10:04;;;;;;;337.58;64.32;;;0.20;99.90;;;;;;5055107;28;20074;-76
2020/12/05 04:12:30;;;;;;;260.77;53.55;;;0.20;99.90;;;;;;5055418;28;20452;-76
2020/12/05 04:14:55;;;;;;;293.02;56.53;;;0.20;99.90;;;;;;5055522;28;20100;-76
2020/12/05 04:17:21;;;;;;;377.52;61.95;;;0.20;99.90;;;;;;5055119;28;20037;-76
2020/12/05 04:19:48;;;;;;;305.98;57.30;;;0.20;99.90;;;;;;5054771;28;20024;-75
2020/12/05 04:22:14;;;;;;;312.27;58.00;;;0.20;99.90;;;;;;5054795;28;20023;-76
2020/12/05 04:24:40;;;;;;;306.33;57.33;;;0.20;99.90;;;;;;5054580;28;20048;-76
2020/12/05 04:27:06;;;;;;;281.45;50.92;;;0.30;99.90;;;;;;5054870;28;20075;-76
2020/12/05 04:29:31;;;;;;;320.00;59.30;;;0.30;99.90;;;;;;5054901;28;20057;-76
2020/12/05 04:31:57;;;;;;;285.50;58.05;;;0.30;99.90;;;;;;5054948;28;20025;-76
2020/12/05 04:34:23;;;;;;;354.20;61.38;;;0.30;99.90;;;;;;5055087;28;20079;-76
2020/12/05 04:36:48;;;;;;;265.42;50.28;;;0.30;99.90;;;;;;5054785;28;20053;-77
2020/12/05 04:39:14;;;;;;;377.80;63.13;;;0.30;99.90;;;;;;5036676;28;20124;-76
2020/12/05 04:41:43;;;;;;;330.20;60.85;;;0.30;99.90;;;;;;5054066;28;20032;-76
2020/12/05 04:44:10;;;;;;;329.77;61.50;;;0.30;99.90;;;;;;5054313;28;20051;-76
2020/12/05 04:46:36;;;;;;;332.58;66.05;;;0.30;99.90;;;;;;5054218;28;20025;-76
2020/12/05 04:49:04;;;;;;;330.95;65.50;;;0.30;99.90;;;;;;5054292;28;20467;-76
2020/12/05 04:51:36;;;;;;;343.05;65.60;;;0.30;99.90;;;;;;5054844;28;20025;-75
2020/12/05 04:54:04;;;;;;;339.08;64.95;;;0.30;99.90;;;;;;5054103;28;20032;-75
2020/12/05 04:56:37;;;;;;;285.88;61.65;;;0.30;99.90;;;;;;5054127;28;20021;-76
2020/12/05 04:59:05;;;;;;;309.00;58.70;;;0.30;99.90;;;;;;5054368;28;20391;-77
2020/12/05 05:01:36;;;;;;;297.33;60.83;;;0.30;99.90;;;;;;5036351;28;20386;-76
2020/12/05 05:04:03;;;;;;;252.48;53.63;;;0.30;99.90;;;;;;5054348;28;20029;-76
2020/12/05 05:06:29;;;;;;;208.48;53.22;;;0.30;99.90;;;;;;5036550;28;20037;-77
2020/12/05 05:08:55;;;;;;;243.32;51.03;;;0.20;99.90;;;;;;5054103;28;20035;-76
2020/12/05 05:11:21;;;;;;;224.95;49.28;;;0.30;99.90;;;;;;5054152;28;20098;-76
2020/12/05 05:14:13;;;;;;;238.80;53.55;;;0.20;99.90;;;;;;5054166;28;20581;-76
2020/12/05 05:16:39;;;;;;;282.00;57.42;;;0.20;99.90;;;;;;5054043;28;20032;-76
2020/12/05 05:19:22;;;;;;;214.63;51.85;;;0.20;99.90;;;;;;5053803;28;20531;-76
2020/12/05 05:21:49;;;;;;;208.35;51.47;;;0.20;99.90;;;;;;5035026;28;20119;-76
2020/12/05 05:24:17;;;;;;;195.73;48.85;;;0.20;99.90;;;;;;5053245;28;20172;-76
2020/12/05 05:26:44;;;;;;;192.85;47.90;;;0.20;99.90;;;;;;5053619;28;20032;-77
2020/12/05 05:29:24;;;;;;;203.88;50.67;;;0.30;99.90;;;;;;5053179;28;20017;-76
2020/12/05 05:31:55;;;;;;;220.30;50.33;;;0.30;99.90;;;;;;5053524;28;20021;-76
2020/12/05 05:34:22;;;;;;;226.63;52.97;;;0.30;99.90;;;;;;5053564;28;20075;-76
2020/12/05 05:36:49;;;;;;;212.65;51.08;;;0.30;99.90;;;;;;5053400;28;20025;-77
2020/12/05 05:39:16;;;;;;;241.48;53.10;;;0.20;99.90;;;;;;5035394;28;20426;-76
2020/12/05 05:41:54;;;;;;;219.98;54.30;;;0.20;99.90;;;;;;5053280;28;20023;-76
2020/12/05 05:44:26;;;;;;;197.52;53.13;;;0.20;99.90;;;;;;5053015;28;20486;-77
2020/12/05 05:46:52;;;;;;;239.73;51.95;;;0.20;99.90;;;;;;5053208;28;20051;-76
2020/12/05 05:49:31;;;;;;;198.88;52.25;;;0.30;99.90;;;;;;5053754;28;20511;-77
2020/12/05 05:52:01;;;;;;;214.20;50.83;;;0.20;99.90;;;;;;5052793;28;20090;-76
2020/12/05 05:54:36;;;;;;;224.10;54.20;;;0.20;99.90;;;;;;5052820;28;20044;-76
2020/12/05 05:57:10;;;;;;;217.15;54.35;;;0.20;99.90;;;;;;5053174;28;20455;-77
2020/12/05 05:59:41;;;;;;;216.55;52.10;;;0.30;99.90;;;;;;5035020;28;20068;-76
2020/12/05 06:02:09;;;;;;;203.95;52.45;;;0.30;99.90;;;;;;5053226;28;20032;-76
2020/12/05 06:04:43;;;;;;;194.32;51.70;;;0.30;99.90;;;;;;5052750;28;20687;-77
2020/12/05 06:07:23;;;;;;;208.40;52.38;;;0.30;99.90;;;;;;5034676;28;20025;-77
2020/12/05 06:09:52;;;;;;;251.38;58.78;;;0.40;99.90;;;;;;5052828;28;20112;-76
2020/12/05 06:12:24;;;;;;;226.90;57.92;;;0.40;99.90;;;;;;5052889;28;20056;-76
2020/12/05 06:14:50;;;;;;;214.82;55.65;;;0.40;99.90;;;;;;5052112;28;20467;-77
2020/12/05 06:17:18;;;;;;;196.30;55.55;;;0.40;99.90;;;;;;5052300;28;20037;-76
2020/12/05 06:19:47;;;;;;;188.95;53.85;;;0.40;99.90;;;;;;5052001;28;20025;-76
2020/12/05 06:22:25;;;;;;;237.00;56.53;;;0.40;99.90;;;;;;5052317;28;20140;-76
2020/12/05 06:25:00;;;;;;;212.88;52.65;;;0.40;99.90;;;;;;5052233;28;20102;-75
2020/12/05 06:27:27;;;;;;;158.88;48.72;;;0.50;99.90;;;;;;5052899;28;20021;-76
2020/12/05 06:29:53;;;;;;;173.45;52.60;;;0.50;99.90;;;;;;5052252;28;20462;-77
2020/12/05 06:32:38;;;;;;;143.98;43.35;;;0.50;99.90;;;;;;5051460;28;20013;-76
2020/12/05 06:35:24;;;;;;;140.63;46.25;;;0.50;99.90;;;;;;5051260;28;20032;-78
2020/12/05 06:37:54;;;;;;;113.40;40.42;;;0.50;99.90;;;;;;5051130;28;20057;-77
2020/12/05 06:40:22;;;;;;;121.93;42.90;;;0.60;99.90;;;;;;5052228;28;20031;-77
2020/12/05 06:42:52;;;;;;;116.60;40.92;;;0.50;99.90;;;;;;5051910;28;20032;-77
2020/12/05 06:45:27;;;;;;;103.53;39.55;;;0.60;99.90;;;;;;5052283;28;20074;-75
2020/12/05 06:48:12;;;;;;;114.78;43.25;;;0.60;99.90;;;;;;5033932;28;20474;-77
2020/12/05 06:50:40;;;;;;;107.43;42.35;;;0.60;99.90;;;;;;5051207;28;20108;-77
2020/12/05 06:53:35;;;;;;;116.93;43.90;;;0.60;99.90;;;;;;5051481;28;20402;-77
2020/12/05 06:56:15;;;;;;;121.88;45.40;;;0.60;99.90;;;;;;5030501;28;20796;-77
2020/12/05 06:58:41;;;;;;;112.70;42.40;;;0.70;99.90;;;;;;5052165;28;20032;-77
2020/12/05 07:01:06;;;;;;;99.90;39.25;;;0.60;99.90;;;;;;5033571;28;20025;-78
2020/12/05 07:03:32;;;;;;;82.43;33.45;;;0.70;99.90;;;;;;5051125;28;20048;-77
2020/12/05 07:05:59;;;;;;;77.40;32.92;;;0.60;99.90;;;;;;5051003;28;20017;-77
2020/12/05 07:08:36;;;;;;;88.25;36.58;;;0.60;99.90;;;;;;5051500;28;20036;-78
2020/12/05 07:11:12;;;;;;;84.53;33.95;;;0.50;99.90;;;;;;5051626;28;20021;-77
2020/12/05 07:13:44;;;;;;;84.68;36.97;;;0.50;99.90;;;;;;5050649;28;20025;-77
2020/12/05 07:16:10;;;;;;;;;;;0.50;99.90;;;;;;5051670;28;20021;-77
2020/12/05 07:18:41;;;;;;;87.50;34.78;;;0.50;99.90;;;;;;5050977;28;19919;-76
2020/12/05 07:21:08;;;;;;;76.13;29.93;;;0.40;99.90;;;;;;5051361;28;20048;-77
2020/12/05 07:23:34;;;;;;;84.68;34.75;;;0.40;99.90;;;;;;5051137;28;20420;-77
2020/12/05 07:26:01;;;;;;;99.90;37.55;;;0.40;99.90;;;;;;5050662;28;20028;-77
2020/12/05 07:28:27;;;;;;;77.93;34.05;;;0.40;99.90;;;;;;5050834;28;20028;-77
2020/12/05 07:30:53;;;;;;;86.18;36.22;;;0.40;99.90;;;;;;5051174;28;20100;-78
2020/12/05 07:33:21;;;;;;;88.43;36.97;;;0.40;99.90;;;;;;5050656;28;20160;-78
2020/12/05 07:36:00;;;;;;;90.63;37.58;;;0.50;99.90;;;;;;5051099;28;20037;-78
2020/12/05 07:38:29;;;;;;;85.78;36.03;;;0.40;99.90;;;;;;5051862;28;20028;-79
2020/12/05 07:40:54;;;;;;;92.13;37.22;;;0.40;99.90;;;;;;5033834;28;20394;-79
2020/12/05 07:43:21;;;;;;;87.22;37.08;;;0.40;99.90;;;;;;5051471;28;20021;-78
2020/12/05 07:45:49;;;;;;;83.55;34.63;;;0.40;99.90;;;;;;5036616;28;20048;-78
2020/12/05 07:48:16;;;;;;;85.05;35.33;;;0.40;99.90;;;;;;5055405;28;20017;-79
2020/12/05 07:50:43;;;;;;;81.53;36.15;;;0.40;99.90;;;;;;5055234;28;20059;-79
2020/12/05 07:53:27;;;;;;;83.80;35.20;;;0.40;99.90;;;;;;5056406;28;20351;-79
2020/12/05 07:55:54;;;;;;;89.18;37.30;;;0.40;99.90;;;;;;5055058;28;20103;-78
2020/12/05 07:58:20;;;;;;;76.75;35.15;;;0.40;99.90;;;;;;5055277;28;20017;-79
2020/12/05 08:00:46;;;;;;;79.53;35.60;;;0.40;99.90;;;;;;5055332;28;20168;-79
2020/12/05 08:03:15;;;;;;;74.63;36.10;;;0.40;99.90;;;;;;5036961;28;20040;-78
2020/12/05 08:06:08;;;;;;;67.50;28.35;;;0.40;99.90;;;;;;5054996;28;20658;-78
2020/12/05 08:08:35;;;;;;;80.47;34.88;;;0.30;99.90;;;;;;5054382;28;20075;-78
2020/12/05 08:11:03;;;;;;;82.90;37.47;;;0.40;99.90;;;;;;5054498;28;20077;-78
2020/12/05 08:13:30;;;;;;;74.35;31.90;;;0.40;99.90;;;;;;5055157;28;20499;-78
2020/12/05 08:16:05;;;;;;;76.47;34.97;;;0.40;99.90;;;;;;5054693;28;20045;-79
2020/12/05 08:18:32;;;;;;;77.78;33.30;;;0.40;99.90;;;;;;5054749;28;20024;-79
2020/12/05 08:21:00;;;;;;;80.97;36.15;;;0.40;99.90;;;;;;5054568;28;20033;-78
2020/12/05 08:23:40;;;;;;;84.45;35.97;;;0.40;99.90;;;;;;5054302;28;20111;-79
2020/12/05 08:26:14;;;;;;;64.30;29.67;;;0.40;99.90;;;;;;5054090;28;20017;-79
2020/12/05 08:28:46;;;;;;;75.63;32.08;;;0.40;99.90;;;;;;5054156;28;20017;-79
2020/12/05 08:31:13;;;;;;;79.75;33.75;;;0.40;99.90;;;;;;5036549;28;20024;-79
2020/12/05 08:33:47;;;;;;;89.68;38.75;;;0.40;99.90;;;;;;5054040;28;20064;-79
2020/12/05 08:36:20;;;;;;;79.70;31.23;;;0.50;99.90;;;;;;5035909;28;20053;-79
2020/12/05 08:38:47;;;;;;;82.50;35.50;;;0.50;99.90;;;;;;5049191;28;20411;-79
2020/12/05 08:41:13;;;;;;;86.97;35.83;;;0.40;99.90;;;;;;5034443;28;20053;-79
2020/12/05 08:43:39;;;;;;;84.68;37.83;;;0.40;99.90;;;;;;5034300;28;20357;-79
2020/12/05 08:46:16;;;;;;;81.32;35.38;;;0.50;99.90;;;;;;5033674;28;20037;-78
2020/12/05 08:48:42;;;;;;;83.22;39.47;;;0.50;99.90;;;;;;5016382;28;20030;-79
2020/12/05 08:51:07;;;;;;;84.45;36.22;;;0.50;99.90;;;;;;5034476;28;20332;-78
2020/12/05 08:53:34;;;;;;;89.75;40.03;;;0.50;99.90;;;;;;5033365;28;20105;-79
2020/12/05 08:56:01;;;;;;;83.63;36.38;;;0.50;99.90;;;;;;5032741;28;20056;-79
2020/12/05 08:58:42;;;;;;;72.88;31.75;;;0.50;99.90;;;;;;5034017;28;20104;-78
2020/12/05 09:01:07;;;;;;;83.95;32.42;;;0.50;99.90;;;;;;5034127;28;20083;-79
2020/12/05 09:03:37;;;;;;;86.15;37.85;;;0.60;99.90;;;;;;5033857;28;20026;-78
2020/12/05 09:06:03;;;;;;;83.35;36.63;;;0.60;99.90;;;;;;5016031;28;20029;-79
2020/12/05 09:08:28;;;;;;;78.40;35.55;;;0.70;99.90;;;;;;5034167;28;20378;-79
2020/12/05 09:10:54;;;;;;;77.50;34.30;;;0.70;99.90;;;;;;5033683;28;20029;-79
2020/12/05 09:13:20;;;;;;;76.55;34.53;;;0.70;99.90;;;;;;5015612;28;20052;-79
2020/12/05 09:16:12;;;;;;;87.32;38.42;;;0.70;99.90;;;;;;5015806;28;20120;-78
2020/12/05 09:18:45;;;;;;;80.82;33.28;;;0.70;99.90;;;;;;5029061;28;20100;-78
2020/12/05 09:21:20;;;;;;;74.35;33.35;;;0.70;99.90;;;;;;5033366;28;20395;-79
2020/12/05 09:23:58;;;;;;;77.88;35.58;;;0.70;99.90;;;;;;5032515;28;20050;-79
2020/12/05 09:26:24;;;;;;;87.07;36.38;;;0.80;99.90;;;;;;5033248;28;20022;-79
2020/12/05 09:28:50;;;;;;;78.28;36.90;;;0.80;99.90;;;;;;5033549;28;20022;-79
2020/12/05 09:31:15;;;;;;;57.70;25.42;;;0.80;99.90;;;;;;5033275;28;20089;-79
2020/12/05 09:33:44;;;;;;;66.70;30.38;;;0.80;99.90;;;;;;5033465;28;20351;-76
2020/12/05 09:36:10;;;;;;;77.82;33.35;;;0.80;99.90;;;;;;5033032;28;20048;-80
2020/12/05 09:38:36;;;;;;;72.78;32.47;;;0.70;99.90;;;;;;5033026;28;20463;-80
2020/12/05 09:41:01;;;;;;;67.35;32.47;;;0.70;99.90;;;;;;5032488;28;20050;-79
2020/12/05 09:43:27;;;;;;;74.15;33.58;;;0.80;99.90;;;;;;5031827;28;20096;-80
2020/12/05 09:45:53;;;;;;;66.35;29.00;;;0.80;99.90;;;;;;5032037;28;20472;-81
2020/12/05 09:48:19;;;;;;;65.80;31.83;;;0.80;99.90;;;;;;5032476;28;20025;-80
2020/12/05 09:50:45;;;;;;;69.82;32.00;;;0.80;99.90;;;;;;5032326;28;20025;-80
2020/12/05 09:53:11;;;;;;;62.60;31.60;;;0.80;99.90;;;;;;5032653;28;20048;-79
2020/12/05 09:55:37;;;;;;;60.05;31.77;;;0.80;99.90;;;;;;5032566;28;20021;-79
2020/12/05 09:58:03;;;;;;;60.80;27.83;;;0.90;99.90;;;;;;5032891;28;20029;-80
2020/12/05 10:00:29;;;;;;;57.35;28.30;;;0.90;99.90;;;;;;5032680;28;20029;-80
2020/12/05 10:02:54;;;;;;;68.45;30.25;;;0.90;99.90;;;;;;5049108;28;20104;-79
2020/12/05 10:05:20;;;;;;;62.47;28.80;;;0.90;99.90;;;;;;5049115;28;20142;-80
2020/12/05 10:07:46;;;;;;;63.15;30.45;;;0.90;99.90;;;;;;5050622;28;20470;-80
2020/12/05 10:10:12;;;;;;;50.63;24.83;;;0.90;99.90;;;;;;5051577;28;20389;-80
2020/12/05 10:12:38;;;;;;;63.13;30.17;;;0.90;99.90;;;;;;5052241;28;20017;-79
2020/12/05 10:15:05;;;;;;;54.88;28.90;;;0.90;99.90;;;;;;5033557;28;20048;-79
2020/12/05 10:17:32;;;;;;;54.15;26.27;;;0.80;99.90;;;;;;5033977;28;20053;-79
2020/12/05 10:19:58;;;;;;;55.97;28.52;;;0.80;99.90;;;;;;5052395;28;20021;-79
2020/12/05 10:22:24;;;;;;;55.65;28.60;;;0.80;99.90;;;;;;5052439;28;20090;-79
2020/12/05 10:24:50;;;;;;;54.17;27.13;;;0.90;99.90;;;;;;5052695;28;20064;-79
2020/12/05 10:27:16;;;;;;;60.47;27.80;;;0.90;99.90;;;;;;5034496;28;20048;-79
2020/12/05 10:29:41;;;;;;;52.50;26.48;;;0.90;99.90;;;;;;5052539;28;20021;-80
2020/12/05 10:32:08;;;;;;;52.70;26.38;;;0.90;99.90;;;;;;5052515;28;20017;-80
2020/12/05 10:34:33;;;;;;;57.78;27.52;;;0.80;99.90;;;;;;5052476;28;20036;-82
2020/12/05 10:36:59;;;;;;;58.95;29.23;;;0.80;99.90;;;;;;5052594;28;20035;-79
2020/12/05 10:39:25;;;;;;;53.80;28.90;;;0.80;99.90;;;;;;5052429;28;20166;-80
2020/12/05 10:41:51;;;;;;;59.72;29.70;;;0.80;99.90;;;;;;5052192;28;20044;-79
2020/12/05 10:44:17;;;;;;;54.55;28.17;;;0.80;99.90;;;;;;5052869;28;20021;-80
2020/12/05 10:46:45;;;;;;;59.42;27.98;;;0.70;99.90;;;;;;5034516;28;20028;-79
2020/12/05 10:49:11;;;;;;;60.38;30.23;;;0.70;99.90;;;;;;5052275;28;20069;-79
2020/12/05 10:51:37;;;;;;;56.45;28.80;;;0.70;99.90;;;;;;5052008;28;20028;-80
2020/12/05 10:54:06;;;;;;;59.05;29.67;;;0.80;99.90;;;;;;5051726;28;20028;-80
2020/12/05 10:56:33;;;;;;;59.22;28.33;;;0.70;99.90;;;;;;5033837;28;20597;-80
2020/12/05 10:58:58;;;;;;;54.83;28.75;;;0.70;99.90;;;;;;5052388;28;20033;-80
2020/12/05 11:01:24;;;;;;;63.88;30.33;;;0.70;99.90;;;;;;5052522;28;20029;-80
2020/12/05 11:03:50;;;;;;;65.22;29.52;;;0.70;99.90;;;;;;5052090;28;20017;-79
2020/12/05 11:06:23;;;;;;;69.68;32.97;;;0.70;99.90;;;;;;5052225;28;20021;-80
2020/12/05 11:08:49;;;;;;;64.20;30.90;;;0.70;99.90;;;;;;5052238;28;20024;-80
2020/12/05 11:11:15;;;;;;;74.13;33.05;;;0.70;99.90;;;;;;5052758;28;20013;-80
2020/12/05 11:13:41;;;;;;;81.28;32.35;;;0.70;99.90;;;;;;5051792;28;20027;-80
2020/12/05 11:16:07;;;;;;;82.40;34.53;;;0.70;99.90;;;;;;5051487;28;20099;-80
2020/12/05 11:18:33;;;;;;;82.18;33.08;;;0.60;99.90;;;;;;5052331;28;20082;-80
2020/12/05 11:20:58;;;;;;;91.22;36.90;;;0.60;99.90;;;;;;5055305;28;20099;-80
2020/12/05 11:23:24;;;;;;;88.53;34.75;;;0.60;99.90;;;;;;5055290;28;20127;-80
2020/12/05 11:25:50;;;;;;;91.82;35.22;;;0.60;99.90;;;;;;5058003;28;20032;-79
2020/12/05 11:28:15;;;;;;;95.93;35.40;;;0.60;99.90;;;;;;5056990;28;20028;-80
2020/12/05 11:30:41;;;;;;;105.32;39.92;;;0.60;99.90;;;;;;5055942;28;20356;-80
2020/12/05 11:33:07;;;;;;;98.78;36.88;;;0.60;99.90;;;;;;5055734;28;20017;-79
2020/12/05 11:35:32;;;;;;;108.72;38.33;;;0.60;99.90;;;;;;5055485;28;20090;-80
2020/12/05 11:37:58;;;;;;;109.63;40.65;;;0.60;99.90;;;;;;5055751;28;20025;-80
2020/12/05 11:40:24;;;;;;;105.22;41.40;;;0.60;99.90;;;;;;5055358;28;20493;-79
2020/12/05 11:42:49;;;;;;;103.38;41.30;;;0.60;99.90;;;;;;5037243;28;20048;-81
2020/12/05 11:45:15;;;;;;;116.70;43.25;;;0.60;99.90;;;;;;5037794;28;20397;-80
2020/12/05 11:47:41;;;;;;;115.20;41.25;;;0.70;99.90;;;;;;5054915;28;20033;-81
2020/12/05 11:50:06;;;;;;;120.28;41.05;;;0.70;99.90;;;;;;5036421;28;20021;-79
2020/12/05 11:52:33;;;;;;;109.28;40.13;;;0.70;99.90;;;;;;5035623;28;20025;-78
2020/12/05 11:54:58;;;;;;;124.57;42.80;;;0.60;99.90;;;;;;5053558;28;20446;-78
2020/12/05 11:57:24;;;;;;;123.90;41.80;;;0.70;99.90;;;;;;5053808;28;20029;-79
2020/12/05 11:59:50;;;;;;;118.25;42.17;;;0.70;99.90;;;;;;5054152;28;20036;-79
2020/12/05 12:02:15;;;;;;;129.35;44.45;;;0.70;99.90;;;;;;5053823;28;20025;-77
2020/12/05 12:04:41;;;;;;;122.55;43.55;;;0.70;99.90;;;;;;5053157;28;20159;-77
2020/12/05 12:07:08;;;;;;;124.65;44.95;;;0.70;99.90;;;;;;5053438;28;20427;-78
2020/12/05 12:09:33;;;;;;;129.88;45.67;;;0.70;99.90;;;;;;5053353;28;20463;-77
2020/12/05 12:12:00;;;;;;;120.10;45.15;;;0.70;99.90;;;;;;5053187;28;20096;-77
2020/12/05 12:14:25;;;;;;;122.20;41.83;;;0.70;99.90;;;;;;5053339;28;20021;-78
2020/12/05 12:16:51;;;;;;;114.43;42.90;;;0.70;99.90;;;;;;5053663;28;20054;-77
2020/12/05 12:19:17;;;;;;;113.68;38.75;;;0.70;99.90;;;;;;5029618;28;20906;-77
2020/12/05 12:21:42;;;;;;;119.65;40.67;;;0.80;99.90;;;;;;5040310;28;20030;-78
2020/12/05 12:24:08;;;;;;;111.03;40.25;;;0.70;99.90;;;;;;5033160;28;20080;-78
2020/12/05 12:26:34;;;;;;;95.30;34.22;;;0.70;99.90;;;;;;5034638;28;20045;-77
2020/12/05 12:29:00;;;;;;;100.97;36.45;;;0.70;99.90;;;;;;5033384;28;20025;-78
2020/12/05 12:31:26;;;;;;;101.22;36.63;;;0.70;99.90;;;;;;5033509;28;20018;-77
2020/12/05 12:33:51;;;;;;;90.10;35.17;;;0.80;99.90;;;;;;5034760;28;20132;-78
2020/12/05 12:36:18;;;;;;;87.13;32.28;;;0.80;99.90;;;;;;5033512;28;20062;-78